Wasco, CA

10:38 PM PDT on September 22, 2014 (GMT -0700)
KCAMCFAR2 | Change Station
CLOSE
Current Station
Personal Weather Station
Location: McFarland, CA
Elevation: 342 ft
Nearby Weather Stations

Elev 342 ft 35.69 °N, 119.23 °W | Updated 5 seconds ago

Clear
Clear
73.2 °F
Feels Like 76 °F
N
0.0
Wind Variable Wind from SE
Gusts 0.0 mph

Today
High -- | Low -- °F
--% Chance of Precip.
Yesterday
High -- | Low -- °F
Precip. -- in
6:45 AM 6:54 PM
Waning Crescent, 1% visible
Pressure 29.91 in
Visibility 10.0 miles
Clouds Clear
Heat Index 76 °F
Dew Point 58 °F
Humidity 60%
Rainfall 0.00 in
Snow Depth 0 in , 2 in , 0 in
UV 0 out of 12
Pollen 6.80 out of 12
Ozone Good
PM2.5 Good
Flu Activity Not available.
METAR KBFL 230454Z 09004KT 10SM CLR 28/13 A2993 RMK AO2 SLP128 T02780128

More Conditions Fewer Conditions

Pressure 29.91 in
Visibility 10.0 miles
Clouds Clear
Heat Index 76 °F
Dew Point 58 °F
Humidity 60%
Rainfall 0.00 in
Snow Depth 0 in , 2 in , 0 in
UV 0 out of 12
Pollen 6.80 out of 12
Ozone Good
PM2.5 Good
Flu Activity Not available.
METAR KBFL 230454Z 09004KT 10SM CLR 28/13 A2993 RMK AO2 SLP128 T02780128

More Conditions Fewer Conditions

10-Day Weather Forecast

Almanac

Astronomy

Sep. 22, 2014 Rise Set
Actual Time 6:45 AM PDT 6:54 PM PDT
Civil Twilight 6:20 AM PDT 7:19 PM PDT
Nautical Twilight 5:50 AM PDT 7:49 PM PDT
Astronomical Twilight 5:20 AM PDT 8:19 PM PDT
Moon 5:20 AM PDT (9/22) 6:03 PM PDT (9/22)
Length of Visible Light 12h 59m
Length of Day
12h 08m
Tomorrow will be 2m 14s shorter.
Waning Crescent, 1% of the Moon is Illuminated
Sep 23
Waning Crescent
Sep 24
New
Oct 1
First Quarter
Oct 8
Full
Oct 15
Last Quarter

Yesterday's Extremes

State Highs State Lows

Community

WunderPhotos

Upload Photos

1,755,606 photos uploaded!

Nearby

Air Quality

  Air Quality AQ Index Pollutant
Yesterday Good
OZONE
Yesterday Good
PM2.5
Current Good
OZONE
Current Good
PM2.5
Monday Moderate
OZONE
Tuesday Moderate
OZONE
Wednesday Moderate
OZONE
Thursday Moderate
OZONE
Friday Moderate
OZONE
Saturday Moderate
OZONE

Snow Depth

Station Depth Elevation
Heavenly Valley 0 in 8850 ft
CSS Lab 2 in 6900 ft
Monitor Pass 0 in 8350 ft
Fallen Leaf 0 in 6300 ft
Echo Peak 0 in 7800 ft

Earthquake Activity

City Distance Mag. Time & Date
Inyokern, California 90 miles 3.1 5:33 PM PDT
2014-09-19
Minimum magnitude displayed is 2.5.

Coastal Water Temperatures

Place Temperature
No Stations Reporting

Nearby Weather Stations